createdAt,value
2022-07-31T00:02:08.568Z,99375.38
2022-07-31T00:04:35.181Z,99382.38
2022-07-31T00:07:02.300Z,99378.13
2022-07-31T00:09:52.846Z,99371.31
2022-07-31T00:12:17.585Z,99369.63
2022-07-31T00:14:44.900Z,99369.72
2022-07-31T00:17:11.470Z,99359.44
2022-07-31T00:19:38.108Z,99362.09
2022-07-31T00:22:04.954Z,99368.16
2022-07-31T00:24:31.617Z,99355.31
2022-07-31T00:26:58.217Z,99366.53
2022-07-31T00:29:24.967Z,99363.13
2022-07-31T00:31:51.611Z,99358.09
2022-07-31T00:34:18.232Z,99359.09
2022-07-31T00:36:44.805Z,99361.06
2022-07-31T00:39:11.363Z,99362.88
2022-07-31T00:41:43.099Z,99361.28
2022-07-31T00:44:12.476Z,99354.44
2022-07-31T00:46:40.463Z,99357.13
2022-07-31T00:49:10.298Z,99351.19
2022-07-31T00:51:40.799Z,99357.31
2022-07-31T00:54:09.139Z,99360.91
2022-07-31T00:56:36.094Z,99355.75
2022-07-31T00:59:02.900Z,99356.75
2022-07-31T01:01:30.688Z,99359.50
2022-07-31T01:03:57.455Z,99350.13
2022-07-31T01:06:24.020Z,99351.09
2022-07-31T01:08:50.587Z,99358.00
2022-07-31T01:11:33.115Z,99358.13
2022-07-31T01:14:02.083Z,99351.25
2022-07-31T01:16:33.117Z,99353.91
2022-07-31T01:19:03.467Z,99353.09
2022-07-31T01:21:39.839Z,99345.38
2022-07-31T01:24:25.196Z,99337.69
2022-07-31T01:27:01.573Z,99330.00
2022-07-31T01:29:46.301Z,99338.66
2022-07-31T01:32:27.736Z,99336.97
2022-07-31T01:35:25.612Z,99329.16
2022-07-31T01:38:06.663Z,99327.50
2022-07-31T01:40:36.395Z,99325.75
2022-07-31T01:43:11.623Z,99328.38
2022-07-31T01:45:41.211Z,99332.69
2022-07-31T01:48:12.706Z,99330.91
2022-07-31T01:50:44.324Z,99326.63
2022-07-31T01:53:15.460Z,99328.31
2022-07-31T01:56:02.233Z,99332.69
2022-07-31T01:58:35.053Z,99329.25
2022-07-31T02:01:04.191Z,99328.44
2022-07-31T02:03:44.449Z,99331.06
2022-07-31T02:06:18.076Z,99336.25
2022-07-31T02:08:47.367Z,99335.34
2022-07-31T02:11:17.779Z,99337.97
2022-07-31T02:13:46.956Z,99351.91
2022-07-31T02:16:16.444Z,99348.47
2022-07-31T02:18:43.328Z,99345.06
2022-07-31T02:21:10.658Z,99340.00
2022-07-31T02:23:38.285Z,99349.41
2022-07-31T02:26:07.087Z,99347.69
2022-07-31T02:28:38.005Z,99349.41
2022-07-31T02:31:06.796Z,99352.03
2022-07-31T02:33:33.974Z,99348.53
2022-07-31T02:36:02.847Z,99351.97
2022-07-31T02:38:30.399Z,99351.06
2022-07-31T02:41:00.092Z,99357.97
2022-07-31T02:43:28.172Z,99357.97
2022-07-31T02:45:56.092Z,99367.47
2022-07-31T02:48:23.583Z,99362.25
2022-07-31T02:50:50.584Z,99364.03
2022-07-31T02:53:17.367Z,99364.94
2022-07-31T02:55:47.190Z,99363.97
2022-07-31T02:58:14.463Z,99352.75
2022-07-31T03:00:41.312Z,99359.63
2022-07-31T03:03:08.124Z,99357.03
2022-07-31T03:05:34.873Z,99359.59
2022-07-31T03:08:01.479Z,99355.22
2022-07-31T03:10:28.134Z,99357.78
2022-07-31T03:12:55.993Z,99362.13
2022-07-31T03:15:25.535Z,99360.34
2022-07-31T03:17:53.878Z,99360.31
2022-07-31T03:20:21.952Z,99359.47
2022-07-31T03:22:48.893Z,99368.94
2022-07-31T03:25:20.083Z,99358.47
2022-07-31T03:27:55.613Z,99365.38
2022-07-31T03:30:26.953Z,99370.56
2022-07-31T03:32:54.915Z,99349.66
2022-07-31T03:35:22.270Z,99356.69
2022-07-31T03:37:49.541Z,99351.47
2022-07-31T03:40:16.160Z,99352.34
2022-07-31T03:42:43.337Z,99349.88
2022-07-31T03:45:12.109Z,99350.78
2022-07-31T03:47:38.738Z,99351.63
2022-07-31T03:50:07.011Z,99344.72
2022-07-31T03:52:33.596Z,99352.56
2022-07-31T03:55:00.297Z,99343.94
2022-07-31T03:57:29.075Z,99350.91
2022-07-31T04:00:00.048Z,99343.94
2022-07-31T04:02:29.033Z,99341.28
2022-07-31T04:04:57.220Z,99343.88
2022-07-31T04:07:24.498Z,99343.75
2022-07-31T04:09:51.366Z,99339.31
2022-07-31T04:12:17.948Z,99337.47
2022-07-31T04:14:44.639Z,99339.13
2022-07-31T04:17:11.293Z,99334.63
2022-07-31T04:19:37.987Z,99342.28
2022-07-31T04:22:04.922Z,99341.19
2022-07-31T04:24:31.785Z,99341.97
2022-07-31T04:26:58.777Z,99345.31
2022-07-31T04:29:28.661Z,99339.88
2022-07-31T04:31:55.963Z,99346.63
2022-07-31T04:34:22.690Z,99342.81
2022-07-31T04:36:49.453Z,99346.03
2022-07-31T04:39:16.104Z,99348.38
2022-07-31T04:41:43.072Z,99349.03
2022-07-31T04:44:10.422Z,99348.88
2022-07-31T04:46:37.257Z,99335.81
2022-07-31T04:49:04.010Z,99343.44
2022-07-31T04:51:30.589Z,99342.44
2022-07-31T04:53:57.251Z,99352.81
2022-07-31T04:56:56.022Z,99347.56
2022-07-31T04:59:23.349Z,99351.78
2022-07-31T05:02:09.951Z,99340.47
2022-07-31T05:04:36.760Z,99363.81
2022-07-31T05:07:03.499Z,99358.59
2022-07-31T05:09:33.134Z,99363.75
2022-07-31T05:12:03.683Z,99359.31
2022-07-31T05:14:30.988Z,99366.19
2022-07-31T05:16:57.546Z,99363.53
2022-07-31T05:19:29.858Z,99357.25
2022-07-31T05:22:01.768Z,99358.00
2022-07-31T05:24:33.641Z,99356.09
2022-07-31T05:27:04.541Z,99353.41
2022-07-31T05:29:32.615Z,99351.50
2022-07-31T05:32:00.961Z,99348.78
2022-07-31T05:34:30.125Z,99355.59
2022-07-31T05:36:58.547Z,99352.00
2022-07-31T05:39:25.254Z,99351.00
2022-07-31T05:41:52.838Z,99343.03
2022-07-31T05:44:19.667Z,99344.50
2022-07-31T05:46:46.322Z,99341.72
2022-07-31T05:49:12.996Z,99333.75
2022-07-31T05:51:43.734Z,99336.84
2022-07-31T05:54:10.283Z,99331.41
2022-07-31T05:56:36.888Z,99332.78
2022-07-31T05:59:03.808Z,99337.66
2022-07-31T06:01:30.496Z,99329.53
2022-07-31T06:03:57.153Z,99336.25
2022-07-31T06:06:23.715Z,99334.13
2022-07-31T06:08:50.292Z,99336.44
2022-07-31T06:11:17.087Z,99337.78
2022-07-31T06:13:43.861Z,99333.97
2022-07-31T06:16:14.947Z,99339.75
2022-07-31T06:18:42.094Z,99330.88
2022-07-31T06:21:08.685Z,99328.72
2022-07-31T06:23:35.256Z,99325.75
2022-07-31T06:26:01.847Z,99330.69
2022-07-31T06:28:48.776Z,99324.25
2022-07-31T06:31:20.404Z,99322.13
2022-07-31T06:33:48.519Z,99322.69
2022-07-31T06:36:16.298Z,99323.16
2022-07-31T06:38:42.977Z,99320.22
2022-07-31T06:41:09.595Z,99318.13
2022-07-31T06:43:36.199Z,99320.44
2022-07-31T06:46:02.861Z,99309.59
2022-07-31T06:48:29.469Z,99318.84
2022-07-31T06:51:14.455Z,99306.28
2022-07-31T06:56:09.008Z,99302.25
2022-07-31T06:58:35.560Z,99304.56
2022-07-31T07:01:02.193Z,99305.06
2022-07-31T07:03:29.033Z,99300.50
2022-07-31T07:05:55.658Z,99308.88
2022-07-31T07:08:22.297Z,99293.75
2022-07-31T07:10:48.864Z,99297.00
2022-07-31T07:13:15.502Z,99296.72
2022-07-31T07:15:42.062Z,99292.09
2022-07-31T07:18:08.652Z,99287.50
2022-07-31T07:20:35.283Z,99293.28
2022-07-31T07:23:01.835Z,99288.69
2022-07-31T07:25:28.821Z,99285.03
2022-07-31T07:27:56.718Z,99284.81
2022-07-31T07:30:25.076Z,99281.09
2022-07-31T07:32:51.647Z,99284.19
2022-07-31T07:35:18.274Z,99283.91
2022-07-31T07:37:44.847Z,99286.22
2022-07-31T07:40:11.796Z,99282.47
2022-07-31T07:42:38.408Z,99276.03
2022-07-31T07:45:06.712Z,99274.03
2022-07-31T07:48:05.614Z,99278.97
2022-07-31T07:50:22.359Z,99276.06
2022-07-31T07:52:55.349Z,99276.66
2022-07-31T07:55:21.901Z,99285.03
2022-07-31T07:57:48.448Z,99268.09
2022-07-31T08:00:16.208Z,99275.56
2022-07-31T08:02:44.689Z,99270.94
2022-07-31T08:05:11.509Z,99274.03
2022-07-31T08:07:41.664Z,99273.69
2022-07-31T08:10:09.556Z,99267.19
2022-07-31T08:12:36.352Z,99264.22
2022-07-31T08:15:03.818Z,99266.25
2022-07-31T08:17:30.413Z,99260.72
2022-07-31T08:19:57.044Z,99269.03
2022-07-31T08:22:23.652Z,99263.47
2022-07-31T08:24:50.262Z,99263.03
2022-07-31T08:27:39.393Z,99262.69
2022-07-31T08:30:07.926Z,99259.03
2022-07-31T08:32:34.761Z,99260.47
2022-07-31T08:35:01.702Z,99253.09
2022-07-31T08:38:01.253Z,99251.13
2022-07-31T08:40:18.042Z,99249.88
2022-07-31T08:42:46.228Z,99248.75
2022-07-31T08:45:14.142Z,99237.09
2022-07-31T08:47:45.662Z,99245.63
2022-07-31T08:50:15.296Z,99233.13
2022-07-31T08:52:44.692Z,99233.78
2022-07-31T08:55:55.687Z,99230.03
2022-07-31T08:57:59.571Z,99234.09
2022-07-31T09:00:28.781Z,99219.63
2022-07-31T09:02:55.671Z,99218.25
2022-07-31T09:05:22.676Z,99219.56
2022-07-31T09:07:49.282Z,99209.53
2022-07-31T09:10:27.006Z,99216.03
2022-07-31T09:12:55.225Z,99214.00
2022-07-31T09:15:27.782Z,99212.69
2022-07-31T09:17:55.232Z,99207.03
2022-07-31T09:20:29.379Z,99204.03
2022-07-31T09:23:07.617Z,99203.66
2022-07-31T09:25:34.435Z,99206.94
2022-07-31T09:28:05.707Z,99204.78
2022-07-31T09:30:33.808Z,99203.66
2022-07-31T09:33:14.786Z,99199.69
2022-07-31T09:35:48.096Z,99205.53
2022-07-31T09:38:15.777Z,99202.53
2022-07-31T09:40:57.580Z,99202.16
2022-07-31T09:43:24.796Z,99199.03
2022-07-31T09:46:02.915Z,99194.94
2022-07-31T09:48:30.113Z,99187.31
2022-07-31T09:51:06.089Z,99181.53
2022-07-31T09:53:52.975Z,99185.47
2022-07-31T09:56:33.299Z,99183.38
2022-07-31T09:59:00.434Z,99179.47
2022-07-31T10:01:27.969Z,99181.63
2022-07-31T10:03:58.254Z,99185.56
2022-07-31T10:06:27.239Z,99188.53
2022-07-31T10:08:55.422Z,99183.06
2022-07-31T10:11:24.559Z,99178.31
2022-07-31T10:13:56.513Z,99168.28
2022-07-31T10:16:27.455Z,99175.16
2022-07-31T10:19:00.094Z,99175.59
2022-07-31T10:21:33.861Z,99164.38
2022-07-31T10:24:03.539Z,99171.91
2022-07-31T10:26:57.893Z,99165.56
2022-07-31T10:29:18.109Z,99154.59
2022-07-31T10:31:46.357Z,99163.91
2022-07-31T10:34:16.097Z,99162.00
2022-07-31T10:36:46.625Z,99158.19
2022-07-31T10:39:28.512Z,99160.41
2022-07-31T10:42:24.155Z,99162.63
2022-07-31T10:45:08.904Z,99162.19
2022-07-31T10:47:35.925Z,99154.16
2022-07-31T10:50:04.520Z,99153.09
2022-07-31T10:52:38.271Z,99157.00
2022-07-31T10:55:22.151Z,99167.88
2022-07-31T10:57:56.097Z,99153.47
2022-07-31T11:00:29.496Z,99149.47
2022-07-31T11:02:56.830Z,99148.81
2022-07-31T11:05:24.494Z,99153.66
2022-07-31T11:08:05.798Z,99151.19
2022-07-31T11:10:34.098Z,99147.47
2022-07-31T11:13:01.745Z,99139.41
2022-07-31T11:15:28.505Z,99142.69
2022-07-31T11:18:22.805Z,99135.50
2022-07-31T11:20:48.100Z,99140.09
2022-07-31T11:23:16.836Z,99129.16
2022-07-31T11:25:45.814Z,99131.19
2022-07-31T11:28:13.569Z,99123.03
2022-07-31T11:31:02.428Z,99127.06
2022-07-31T11:33:41.913Z,99133.13
2022-07-31T11:36:21.459Z,99115.78
2022-07-31T11:38:50.942Z,99115.38
2022-07-31T11:41:22.049Z,99114.06
2022-07-31T11:43:51.951Z,99117.72
2022-07-31T11:46:30.292Z,99118.97
2022-07-31T11:48:57.508Z,99113.91
2022-07-31T11:51:25.783Z,99107.19
2022-07-31T11:53:57.019Z,99102.16
2022-07-31T11:56:26.257Z,99111.56
2022-07-31T11:58:57.902Z,99104.84
2022-07-31T12:01:29.376Z,99110.78
2022-07-31T12:03:57.720Z,99097.28
2022-07-31T12:06:36.533Z,99111.13
2022-07-31T12:09:03.771Z,99103.53
2022-07-31T12:11:30.538Z,99098.59
2022-07-31T12:13:57.212Z,99101.38
2022-07-31T12:16:23.775Z,99098.72
2022-07-31T12:18:51.469Z,99094.28
2022-07-31T12:21:18.918Z,99092.34
2022-07-31T12:23:46.493Z,99087.38
2022-07-31T12:26:31.814Z,99085.19
2022-07-31T12:28:58.412Z,99087.59
2022-07-31T12:31:25.372Z,99075.53
2022-07-31T12:33:52.129Z,99070.97
2022-07-31T12:36:18.683Z,99079.88
2022-07-31T12:38:48.498Z,99068.25
2022-07-31T12:41:16.568Z,99076.66
2022-07-31T12:43:51.283Z,99073.72
2022-07-31T12:46:20.743Z,99080.50
2022-07-31T12:48:47.459Z,99069.09
2022-07-31T12:51:14.255Z,99064.97
2022-07-31T12:53:40.829Z,99070.63
2022-07-31T12:56:12.280Z,99071.78
2022-07-31T12:58:38.976Z,99065.94
2022-07-31T13:01:05.770Z,99062.34
2022-07-31T13:03:38.737Z,99065.78
2022-07-31T13:06:12.218Z,99061.25
2022-07-31T13:08:38.771Z,99063.81
2022-07-31T13:11:05.375Z,99063.41
2022-07-31T13:13:32.099Z,99059.75
2022-07-31T13:15:58.681Z,99066.22
2022-07-31T13:18:25.307Z,99065.28
2022-07-31T13:20:51.855Z,99069.16
2022-07-31T13:23:18.398Z,99061.88
2022-07-31T13:25:44.972Z,99068.16
2022-07-31T13:28:11.522Z,99059.72
2022-07-31T13:30:38.106Z,99061.38
2022-07-31T13:33:04.717Z,99056.47
2022-07-31T13:35:32.634Z,99056.53
2022-07-31T13:37:59.214Z,99054.53
2022-07-31T13:40:44.858Z,99047.59
2022-07-31T13:43:12.028Z,99042.19
2022-07-31T13:45:38.627Z,99046.53
2022-07-31T13:48:09.277Z,99033.31
2022-07-31T13:50:39.970Z,99045.44
2022-07-31T13:53:06.862Z,99038.94
2022-07-31T13:55:33.621Z,99038.28
2022-07-31T13:58:01.331Z,99045.16
2022-07-31T14:00:29.889Z,99033.56
2022-07-31T14:02:57.274Z,99037.94
2022-07-31T14:05:26.442Z,99035.09
2022-07-31T14:07:53.950Z,99039.88
2022-07-31T14:10:22.001Z,99031.31
2022-07-31T14:12:49.010Z,99035.28
2022-07-31T14:15:16.593Z,99036.94
2022-07-31T14:17:43.223Z,99028.81
2022-07-31T14:20:10.263Z,99027.81
2022-07-31T14:22:36.830Z,99032.06
2022-07-31T14:25:04.059Z,99029.91
2022-07-31T14:27:30.788Z,99019.31
2022-07-31T14:29:57.505Z,99019.63
2022-07-31T14:32:25.240Z,99025.69
2022-07-31T14:34:54.821Z,99018.63
2022-07-31T14:37:21.388Z,99021.78
2022-07-31T14:39:48.379Z,99024.22
2022-07-31T14:42:15.167Z,99018.88
2022-07-31T14:44:49.335Z,99026.59
2022-07-31T14:47:16.945Z,99024.38
2022-07-31T14:50:08.703Z,99029.09
2022-07-31T14:52:31.220Z,99012.06
2022-07-31T14:54:59.832Z,99015.91
2022-07-31T14:57:27.687Z,99012.13
2022-07-31T14:59:54.533Z,99009.56
2022-07-31T15:02:22.673Z,99010.22
2022-07-31T15:04:51.357Z,99009.47
2022-07-31T15:07:36.666Z,99011.38
2022-07-31T15:10:06.724Z,99006.06
2022-07-31T15:12:33.355Z,99006.97
2022-07-31T15:15:00.012Z,99003.81
2022-07-31T15:17:26.656Z,99006.88
2022-07-31T15:19:53.337Z,99000.09
2022-07-31T15:22:20.034Z,99000.84
2022-07-31T15:24:48.892Z,99000.94
2022-07-31T15:27:21.710Z,99002.09
2022-07-31T15:30:05.865Z,99008.50
2022-07-31T15:32:38.785Z,99001.09
2022-07-31T15:35:07.611Z,99001.25
2022-07-31T15:37:36.000Z,99001.53
2022-07-31T15:40:07.258Z,99005.69
2022-07-31T15:42:40.578Z,99000.03
2022-07-31T15:45:09.731Z,98994.94
2022-07-31T15:47:36.837Z,99001.47
2022-07-31T15:50:05.116Z,98994.94
2022-07-31T15:52:32.403Z,98995.69
2022-07-31T15:54:59.136Z,99002.69
2022-07-31T15:57:25.833Z,99000.88
2022-07-31T15:59:54.403Z,99005.38
2022-07-31T16:02:22.534Z,99002.94
2022-07-31T16:04:52.623Z,99004.59
2022-07-31T16:08:32.748Z,99003.50
2022-07-31T16:10:16.276Z,99002.72
2022-07-31T16:12:46.196Z,99006.13
2022-07-31T16:15:13.386Z,99006.84
2022-07-31T16:17:40.583Z,98991.44
2022-07-31T16:20:10.307Z,99007.81
2022-07-31T16:22:38.541Z,99007.97
2022-07-31T16:25:10.038Z,99003.84
2022-07-31T16:27:37.399Z,99002.72
2022-07-31T16:30:05.768Z,99007.94
2022-07-31T16:32:32.851Z,99004.22
2022-07-31T16:35:01.392Z,98998.78
2022-07-31T16:37:51.370Z,99008.09
2022-07-31T16:40:28.460Z,99010.44
2022-07-31T16:43:01.939Z,99012.97
2022-07-31T16:45:29.841Z,99013.03
2022-07-31T16:47:57.104Z,99007.19
2022-07-31T16:50:23.921Z,99019.13
2022-07-31T16:52:54.573Z,99019.88
2022-07-31T16:55:55.744Z,99025.56
2022-07-31T16:58:11.530Z,99033.34
2022-07-31T17:00:39.425Z,99024.75
2022-07-31T17:03:06.314Z,99018.97
2022-07-31T17:05:32.929Z,99024.28
2022-07-31T17:07:59.658Z,99033.28
2022-07-31T17:10:27.049Z,99031.66
2022-07-31T17:12:54.325Z,99029.19
2022-07-31T17:15:21.274Z,99026.69
2022-07-31T17:17:48.108Z,99035.41
2022-07-31T17:20:15.103Z,99041.47
2022-07-31T17:22:41.808Z,99034.66
2022-07-31T17:25:10.148Z,99041.03
2022-07-31T17:27:36.716Z,99029.81
2022-07-31T17:30:04.211Z,99041.97
2022-07-31T17:32:32.353Z,99036.56
2022-07-31T17:34:58.983Z,99041.03
2022-07-31T17:37:25.769Z,99036.84
2022-07-31T17:39:57.818Z,99032.72
2022-07-31T17:42:26.025Z,99033.72
2022-07-31T17:44:55.821Z,99044.34
2022-07-31T17:47:25.606Z,99042.91
2022-07-31T17:49:53.267Z,99038.03
2022-07-31T17:52:20.954Z,99043.09
2022-07-31T17:54:48.063Z,99048.63
2022-07-31T17:57:14.674Z,99049.63
2022-07-31T17:59:42.664Z,99045.34
2022-07-31T18:02:09.995Z,99053.91
2022-07-31T18:04:37.690Z,99058.09
2022-07-31T18:07:06.278Z,99051.78
2022-07-31T18:09:33.125Z,99055.06
2022-07-31T18:12:00.143Z,99059.16
2022-07-31T18:14:26.795Z,99055.28
2022-07-31T18:16:53.946Z,99060.31
2022-07-31T18:19:22.047Z,99054.66
2022-07-31T18:21:49.670Z,99054.22
2022-07-31T18:24:16.263Z,99054.53
2022-07-31T18:26:42.866Z,99053.81
2022-07-31T18:29:09.459Z,99055.75
2022-07-31T18:31:36.311Z,99053.38
2022-07-31T18:34:04.705Z,99060.50
2022-07-31T18:36:32.585Z,99061.63
2022-07-31T18:38:59.285Z,99058.47
2022-07-31T18:41:25.989Z,99057.09
2022-07-31T18:43:52.612Z,99071.44
2022-07-31T18:46:20.216Z,99070.03
2022-07-31T18:48:49.803Z,99070.34
2022-07-31T18:51:20.098Z,99076.78
2022-07-31T18:53:46.733Z,99074.56
2022-07-31T18:56:13.319Z,99074.88
2022-07-31T18:58:41.995Z,99069.19
2022-07-31T19:01:08.919Z,99077.38
2022-07-31T19:03:35.662Z,99076.69
2022-07-31T19:06:02.521Z,99072.72
2022-07-31T19:08:29.259Z,99079.66
2022-07-31T19:10:55.882Z,99077.16
2022-07-31T19:13:23.346Z,99080.13
2022-07-31T19:15:53.150Z,99075.97
2022-07-31T19:18:28.077Z,99074.59
2022-07-31T19:21:23.434Z,99073.22
2022-07-31T19:23:43.739Z,99079.66
2022-07-31T19:26:10.624Z,99064.41
2022-07-31T19:28:38.258Z,99073.16
2022-07-31T19:31:05.545Z,99068.16
2022-07-31T19:33:32.327Z,99076.19
2022-07-31T19:36:02.168Z,99071.16
2022-07-31T19:38:33.429Z,99071.50
2022-07-31T19:41:00.445Z,99069.16
2022-07-31T19:43:27.749Z,99064.16
2022-07-31T19:46:00.426Z,99066.06
2022-07-31T19:48:39.675Z,99069.69
2022-07-31T19:51:06.469Z,99068.97
2022-07-31T19:53:33.068Z,99067.38
2022-07-31T19:56:01.915Z,99069.34
2022-07-31T19:58:28.558Z,99074.69
2022-07-31T20:00:55.169Z,99073.94
2022-07-31T20:03:21.898Z,99071.59
2022-07-31T20:05:48.598Z,99071.59
2022-07-31T20:08:15.182Z,99068.16
2022-07-31T20:10:41.763Z,99071.78
2022-07-31T20:13:08.405Z,99068.47
2022-07-31T20:15:51.047Z,99066.91
2022-07-31T20:18:27.238Z,99063.50
2022-07-31T20:20:57.394Z,99060.13
2022-07-31T20:23:24.979Z,99065.59
2022-07-31T20:25:51.573Z,99063.94
2022-07-31T20:28:18.181Z,99059.00
2022-07-31T20:30:44.788Z,99053.91
2022-07-31T20:33:13.472Z,99052.28
2022-07-31T20:35:48.866Z,99052.50
2022-07-31T20:38:23.120Z,99058.81
2022-07-31T20:40:54.360Z,99048.59
2022-07-31T20:43:26.935Z,99048.81
2022-07-31T20:45:57.289Z,99049.03
2022-07-31T20:48:31.015Z,99048.41
2022-07-31T20:50:59.250Z,99048.59
2022-07-31T20:53:26.195Z,99047.88
2022-07-31T20:55:52.863Z,99048.03
2022-07-31T20:58:21.732Z,99045.53
2022-07-31T21:00:49.554Z,99040.44
2022-07-31T21:03:17.285Z,99038.88
2022-07-31T21:05:45.106Z,99039.00
2022-07-31T21:08:12.084Z,99037.31
2022-07-31T21:10:38.985Z,99038.28
2022-07-31T21:13:05.598Z,99046.22
2022-07-31T21:15:44.227Z,99045.38
2022-07-31T21:18:15.918Z,99041.97
2022-07-31T21:20:50.669Z,99036.84
2022-07-31T21:23:21.168Z,99043.09
2022-07-31T21:25:48.132Z,99036.31
2022-07-31T21:28:14.884Z,99037.28
2022-07-31T21:30:41.622Z,99038.25
2022-07-31T21:33:09.329Z,99033.19
2022-07-31T21:35:37.632Z,99030.06
2022-07-31T21:38:05.135Z,99028.34
2022-07-31T21:40:36.075Z,99030.31
2022-07-31T21:43:03.505Z,99028.66
2022-07-31T21:45:40.598Z,99033.25
2022-07-31T21:48:19.760Z,99029.00
2022-07-31T21:50:46.874Z,99029.91
2022-07-31T21:53:14.265Z,99024.97
2022-07-31T21:55:41.318Z,99021.59
2022-07-31T21:58:09.206Z,99024.38
2022-07-31T22:00:36.145Z,99024.56
2022-07-31T22:03:03.222Z,99017.75
2022-07-31T22:05:49.159Z,99017.06
2022-07-31T22:08:16.088Z,99019.97
2022-07-31T22:10:42.774Z,99014.22
2022-07-31T22:13:10.154Z,99015.25
2022-07-31T22:15:58.263Z,99019.63
2022-07-31T22:18:26.201Z,99016.22
2022-07-31T22:20:53.560Z,99010.25
2022-07-31T22:23:20.497Z,99006.81
2022-07-31T22:25:49.077Z,99003.47
2022-07-31T22:28:18.872Z,99003.47
2022-07-31T22:30:46.305Z,99006.16
2022-07-31T22:33:13.034Z,98998.34
2022-07-31T22:35:40.857Z,99010.66
2022-07-31T22:38:08.475Z,99000.44
2022-07-31T22:40:35.591Z,99000.56
2022-07-31T22:43:03.461Z,98998.94
2022-07-31T22:45:30.472Z,98994.78
2022-07-31T22:47:57.961Z,98994.78
2022-07-31T22:50:25.018Z,98994.78
2022-07-31T22:52:51.694Z,98993.91
2022-07-31T22:55:18.318Z,98992.19
2022-07-31T22:57:45.066Z,99006.16
2022-07-31T23:00:15.431Z,98993.09
2022-07-31T23:02:43.148Z,98987.03
2022-07-31T23:05:10.900Z,98995.72
2022-07-31T23:07:37.794Z,98993.19
2022-07-31T23:10:06.280Z,98995.84
2022-07-31T23:12:33.406Z,98982.00
2022-07-31T23:15:00.036Z,98992.25
2022-07-31T23:17:26.667Z,98992.25
2022-07-31T23:19:54.091Z,98983.56
2022-07-31T23:22:33.288Z,98987.03
2022-07-31T23:25:05.092Z,98992.28
2022-07-31T23:27:32.705Z,98983.59
2022-07-31T23:29:59.905Z,98986.28
2022-07-31T23:32:27.836Z,98982.97
2022-07-31T23:34:54.570Z,98980.63
2022-07-31T23:37:21.284Z,98980.81
2022-07-31T23:39:47.890Z,98980.88
2022-07-31T23:42:33.103Z,98975.78
2022-07-31T23:44:59.765Z,98974.06
2022-07-31T23:47:32.105Z,98974.06
2022-07-31T23:50:11.985Z,98968.13
2022-07-31T23:52:38.605Z,98968.97
2022-07-31T23:55:05.734Z,98972.47
2022-07-31T23:57:34.221Z,98969.13
